Nearby METAR Reports

 

EGNS - Isle Of Man/Rona, United Kingdom
Distance from station: SSW 16mi, 26km
Updated: 05/08/2021 23:50
Mostly cloudy
Mostly cloudy
 Wind from SSE
Wind: SSE 8 mph , 13 km/h
Temperature: 15°C
Dew Point: 15°C
Humidity: 100%
Barometer: 992 hPa
Clouds: Mostly cloudy
Visibility: 6 miles , 10 km
Cloud details: Few Clouds 152 m
Mostly cloudy 244 m
2021/08/05 22:50 EGNS 052250Z 15007KT 9999 FEW005 BKN008 15/15 Q0992
EGAC - Belfast Harbour, United Kingdom
Distance from station: WNW 57mi, 92km
Updated: 06/08/2021 00:20
Light rain, Mostly cloudy
Light rain, Mostly cloudy
 Wind from varies
Wind: varies 3 mph , 6 km/h
Temperature: 15°C
Dew Point: 14°C
Humidity: 94%
Barometer: 991 hPa
Summary: Light rain
Clouds: Mostly cloudy
Visibility: 6 miles , 10 km
Cloud details: Partly cloudy 152 m
Mostly cloudy 274 m
2021/08/05 23:20 EGAC 052320Z AUTO VRB03KT 9999 -RA SCT005/// BKN009/// 15/14 Q0991
 
EGAA - Belfast/Aldergro, United Kingdom
Distance from station: WNW 71mi, 114km
Updated: 06/08/2021 00:20
Light rain, Few clouds
Light rain, Few clouds
 Wind from SE
Wind: SE 3 mph , 6 km/h
Temperature: 15°C
Dew Point: 14°C
Humidity: 94%
Barometer: 991 hPa
Summary: Light rain
Clouds: Few Clouds
Visibility: 6 miles , 10 km
Cloud details: Few Clouds 183 m
2021/08/05 23:20 EGAA 052320Z AUTO 14003KT 9999 -RA FEW006 15/14 Q0991
EGNH - Blackpool Airpor, United Kingdom
Distance from station: ESE 73mi, 117km
Updated: 05/08/2021 19:50
NOT Current
Nearby showers, Mostly cloudy
Nearby showers, Mostly cloudy
 Wind from SE
Wind: SE 17 mph , 28 km/h
Temperature: 17°C
Dew Point: 14°C
Humidity: 83%
Barometer: 995 hPa
Summary: Nearby Showers
Clouds: Mostly cloudy
Visibility: 6 miles , 10 km
Cloud details: Few Clouds 305 m
Mostly cloudy 518 m
2021/08/05 18:50 EGNH 051850Z 14015KT 9999 VCSH FEW010 BKN017 17/14 Q0995
 
EGOV - Valley Raf, United Kingdom
Distance from station: S 73mi, 118km
Updated: 05/08/2021 23:50
Mostly cloudy
Mostly cloudy
 Wind from S
Wind: S 16 mph , 26 km/h
Temperature: 16°C
Dew Point: 15°C
Humidity: 94%
Barometer: 992 hPa
Clouds: Mostly cloudy
Visibility: 6 miles , 10 km
Cloud details: Few Clouds 274 m
Mostly cloudy 640 m
2021/08/05 22:50 EGOV 052250Z AUTO 19014KT 9999 FEW009/// BKN021/// 16/15 Q0992
EGNO - Wharton, United Kingdom
Distance from station: ESE 78mi, 125km
Updated: 05/08/2021 16:50
NOT Current
Partly cloudy
Partly cloudy
 Wind from SSE
Wind: SSE 14 mph , 22 km/h
Temperature: 18°C
Dew Point: 13°C
Humidity: 73%
Barometer: 997 hPa
Clouds: Partly cloudy
Visibility: 6 miles , 10 km
Cloud details: Partly cloudy 823 m
Partly cloudy 1372 m
2021/08/05 15:50 EGNO 051550Z 15012KT 9999 SCT027 SCT045 18/13 Q0997
 
EGOW - Woodvale Raf, United Kingdom
Distance from station: SE 79mi, 127km
Updated: 05/08/2021 15:50
NOT Current
Mostly cloudy
Mostly cloudy
 Wind from SSE
Wind: SSE 21 mph , 33 km/h
Temperature: 17°C
Dew Point: 12°C
Humidity: 73%
Barometer: 997 hPa
Clouds: Mostly cloudy
Visibility: 6 miles , 10 km
Cloud details: Partly cloudy 549 m
Mostly cloudy 762 m
2021/08/05 14:50 EGOW 051450Z 15018KT 9999 SCT018 BKN025 17/12 Q0997 RMK WHT
EGPK - Prestwick(Civ/Na, United Kingdom
Distance from station: N 82mi, 132km
Updated: 06/08/2021 00:20
Light rain, Partly cloudy
Light rain, Partly cloudy
 Wind from E
Wind: E 13 mph , 20 km/h
Temperature: 16°C
Dew Point: 14°C
Humidity: 88%
Barometer: 993 hPa
Summary: Light rain
Clouds: Partly cloudy
Visibility: 6 miles , 10 km
Cloud details: Partly cloudy 1250 m
2021/08/05 23:20 EGPK 052320Z 10011KT 9999 -RA SCT041 16/14 Q0993
 
EGCK - Caernarfon, United Kingdom
Distance from station: S 84mi, 136km
Updated: 06/08/2021 00:20
Overcast
Overcast
 Wind from SSW
Wind: SSW 10 mph , 17 km/h
Temperature: 16°C
Dew Point: 15°C
Humidity: 94%
Barometer: 992 hPa
Clouds: Overcast
Visibility: 6 miles , 10 km
Cloud details: Mostly cloudy 305 m
Overcast 853 m
2021/08/05 23:20 EGCK 052320Z AUTO 20009KT 9999 BKN010/// OVC028/// 16/15 Q0992
EGEC - Campbeltown, United Kingdom
Distance from station: NNW 90mi, 144km
Updated: 05/08/2021 17:20
NOT Current
Rain, Mostly cloudy
Rain, Mostly cloudy
 Wind from ESE
Wind: ESE 21 mph , 33 km/h
Temperature: 15°C
Dew Point: 15°C
Humidity: 100%
Barometer: 994 hPa
Summary: Rain
Clouds: Mostly cloudy
Visibility: 6 miles , 10 km
Cloud details: Few Clouds 305 m
Mostly cloudy 488 m
2021/08/05 16:20 EGEC 051620Z 11018KT 9999 RA FEW010 BKN016 15/15 Q0994
 
EIDW - Dublin Airport, Ireland
Distance from station: SW 93mi, 150km
Updated: 06/08/2021 00:00
Light rain, Showers, Mostly cloudy
Light rain, Showers, Mostly cloudy
 Wind from N
Wind: N 1 mph , 2 km/h
Temperature: 15°C
Dew Point: 14°C
Humidity: 94%
Barometer: 991 hPa
Summary: Light rain, Showers
Clouds: Mostly cloudy
Visibility: 6 miles , 10 km
Cloud details: Few Clouds 244 m
Partly cloudy 457 m
Mostly cloudy 3048 m
2021/08/05 23:00 EIDW 052300Z 36001KT 9999 -SHRA FEW008 SCT015CB BKN100 15/14 Q0991 TEMPO 4000 SHRA BKN012
EGOM - Spadeadam, United Kingdom
Distance from station: NE 95mi, 152km
Updated: 05/08/2021 23:50
Overcast
Overcast
 Wind from ESE
Wind: ESE 13 mph , 20 km/h
Temperature: 14°C
Dew Point: 12°C
Humidity: 88%
Barometer: 995 hPa
Clouds: Overcast
Visibility: 6 miles , 10 km
Cloud details: Overcast 244 m
2021/08/05 22:50 EGOM 052250Z AUTO 12011KT 9999 OVC008/// 14/12 Q0995 RERA
 
EGGP - Liverpool Airpor, United Kingdom
Distance from station: SE 98mi, 157km
Updated: 06/08/2021 00:20
Clear
Clear
 Wind from SSE
Wind: SSE 9 mph , 15 km/h
Temperature: 16°C
Dew Point: 15°C
Humidity: 94%
Barometer: 993 hPa
Summary: Clear
Visibility: greater than 7 miles , 10 km
2021/08/05 23:20 EGGP 052320Z 15008KT 110V170 CAVOK 16/15 Q0993
Flag Counter
Free Website Hit Counter
Free website hit counter